Hartford, CT

4:12 PM EDT on September 19, 2017 (GMT -0400)
Hartford-brainard

Weather History for KHFD - March, 2013

Change the Weather History Date:

Thursday, March 7, 2013

  Actual Average Record
Temperature  
Mean Temperature 34 °F -  
Max Temperature 37 °F 43 °F 68 °F (1974)
Min Temperature 32 °F 25 °F 1 °F (2003)
Degree Days  
Heating Degree Days 30    
Moisture  
Dew Point 30 °F    
Average Humidity 86    
Maximum Humidity 96    
Minimum Humidity 70    
Precipitation  
Precipitation 0.16 in - - ()
Sea Level Pressure  
Sea Level Pressure 30.02 in    
Wind  
Wind Speed 16 mph (North)    
Max Wind Speed 22 mph    
Max Gust Speed 31 mph    
Visibility 3 miles    
Events Fog , Snow    
Averages and records for this station are not official NWS values.
T = Trace of Precipitation, MM = Missing Value Source: NWS Daily Summary

Daily Weather History Graph

Daily Weather History Graph

Search for Another Location

Airport or City:

Trip Planner

Search our weather history database for the weather conditions in past years. The results will help you decide how hot, cold, wet, or windy it might be!

Date:

Astronomy

Mar. 07, 2013 Rise Set
Actual Time 6:15 AM EST 5:48 PM EST
Civil Twilight 5:47 AM EST 6:16 PM EST
Nautical Twilight 5:15 AM EST 6:48 PM EST
Astronomical Twilight 4:43 AM EST 7:20 PM EST
Moon 3:16 AM EST (3/7) 1:30 PM EST (3/7)
Length of Visible Light 12h 28m
Length of Day
11h 32m
Waning Crescent, 20% of the Moon is Illuminated
Mar 7
Waning Crescent
Mar 11
New
Mar 19
First Quarter
Mar 27
Full
Apr 3
Last Quarter

Hourly Weather History & Observations

Time (EST) Temp. Windchill Dew Point Humidity Pressure Visibility Wind Dir Wind Speed Gust Speed Precip Events Conditions
12:37 AM 35.6 °F 25.5 °F 28.4 °F 75% 29.99 in 10.0 mi NNE 17.3 mph 25.3 mph N/A   Overcast
12:53 AM 37.0 °F 28.1 °F 28.0 °F 70% 30.00 in 10.0 mi North 15.0 mph 26.5 mph N/A   Overcast
1:53 AM 35.1 °F 24.5 °F 28.9 °F 78% 29.99 in 3.0 mi North 18.4 mph 24.2 mph 0.00 in Snow Light Snow
2:33 AM 33.8 °F 23.9 °F 28.4 °F 81% 29.97 in 2.0 mi North 15.0 mph 26.5 mph 0.00 in Snow Light Snow
2:53 AM 34.0 °F 24.2 °F 28.9 °F 82% 29.98 in 3.0 mi North 15.0 mph 26.5 mph 0.00 in Snow Light Snow
3:53 AM 35.1 °F 25.2 °F 28.0 °F 76% 29.99 in 5.0 mi North 16.1 mph 27.6 mph 0.00 in Snow Light Snow
4:15 AM 33.8 °F 22.8 °F 28.4 °F 81% 29.99 in 3.0 mi North 18.4 mph 28.8 mph 0.00 in Snow Light Snow
4:27 AM 33.8 °F 23.2 °F 28.4 °F 81% 29.99 in 2.0 mi North 17.3 mph 29.9 mph 0.00 in Snow Light Snow
4:53 AM 33.1 °F 21.5 °F 28.9 °F 85% 29.99 in 2.0 mi North 19.6 mph 27.6 mph 0.00 in Snow Light Snow
5:17 AM 33.8 °F 22.8 °F 28.4 °F 81% 29.99 in 3.0 mi North 18.4 mph 27.6 mph 0.00 in Snow Light Snow
5:53 AM 33.1 °F 21.9 °F 28.0 °F 82% 30.01 in 2.0 mi North 18.4 mph 28.8 mph 0.00 in Snow Light Snow
6:10 AM 33.8 °F 23.5 °F 28.4 °F 81% 30.01 in 4.0 mi North 16.1 mph 26.5 mph 0.00 in Snow Light Snow
6:29 AM 33.8 °F 22.5 °F 28.4 °F 81% 30.02 in 2.5 mi North 19.6 mph 26.5 mph 0.00 in Snow Light Snow
6:39 AM 33.8 °F 22.8 °F 28.4 °F 81% 30.02 in 4.0 mi North 18.4 mph 31.1 mph 0.00 in Snow Light Snow
6:53 AM 33.1 °F 23.0 °F 28.0 °F 82% 30.02 in 8.0 mi North 15.0 mph 26.5 mph 0.00 in   Overcast
7:24 AM 33.8 °F 23.2 °F 28.4 °F 81% 30.02 in 4.0 mi North 17.3 mph 25.3 mph 0.00 in Snow Light Snow
7:32 AM 33.8 °F 24.3 °F 28.4 °F 81% 30.02 in 2.5 mi North 13.8 mph 23.0 mph 0.00 in Snow Light Snow
7:41 AM 33.8 °F 23.2 °F 28.4 °F 81% 30.03 in 1.0 mi North 17.3 mph 26.5 mph 0.00 in Snow Light Snow
7:48 AM 33.8 °F 22.8 °F 28.4 °F 81% 30.03 in 0.5 mi North 18.4 mph 27.6 mph 0.00 in Snow Snow
7:53 AM 33.1 °F 22.2 °F 28.9 °F 85% 30.03 in 0.5 mi North 17.3 mph 27.6 mph 0.00 in Fog , Snow Snow
8:38 AM 32.0 °F 21.2 °F 30.2 °F 93% 30.03 in 0.5 mi North 16.1 mph 23.0 mph 0.00 in Fog , Snow Snow
8:49 AM 32.0 °F 20.8 °F 30.2 °F 93% 30.03 in 1.0 mi North 17.3 mph 21.9 mph 0.00 in Snow Light Snow
8:53 AM 32.0 °F 21.2 °F 30.0 °F 92% 30.03 in 1.0 mi North 16.1 mph 24.2 mph 0.00 in Snow Light Snow
8:57 AM 33.8 °F 23.2 °F 30.2 °F 87% 30.03 in 1.2 mi North 17.3 mph 25.3 mph 0.00 in Snow Light Snow
9:09 AM 33.8 °F 23.2 °F 30.2 °F 87% 30.02 in 3.0 mi North 17.3 mph 27.6 mph 0.00 in Snow Light Snow
9:14 AM 33.8 °F 22.8 °F 30.2 °F 87% 30.02 in 2.0 mi North 18.4 mph 26.5 mph 0.00 in Snow Light Snow
9:17 AM 33.8 °F 23.2 °F 30.2 °F 87% 30.02 in 1.5 mi North 17.3 mph 26.5 mph 0.00 in Snow Light Snow
9:26 AM 33.8 °F 23.2 °F 30.2 °F 87% 30.02 in 2.0 mi North 17.3 mph 26.5 mph 0.00 in Snow Light Snow
9:33 AM 33.8 °F 22.5 °F 28.4 °F 81% 30.02 in 3.0 mi North 19.6 mph 26.5 mph 0.00 in Snow Light Snow
9:53 AM 33.1 °F 22.2 °F 28.9 °F 85% 30.01 in 10.0 mi North 17.3 mph 29.9 mph 0.00 in   Overcast
10:53 AM 35.1 °F 24.8 °F 28.9 °F 78% 30.02 in 10.0 mi North 17.3 mph 25.3 mph N/A   Overcast
11:35 AM 37.4 °F 28.9 °F 28.4 °F 70% 30.02 in 10.0 mi North 13.8 mph 27.6 mph N/A   Overcast
11:53 AM 37.0 °F 27.0 °F 28.0 °F 70% 30.02 in 10.0 mi North 18.4 mph 31.1 mph N/A   Overcast
12:41 PM 37.4 °F 26.6 °F 30.2 °F 75% 30.02 in 1.8 mi North 21.9 mph 27.6 mph 0.00 in Snow Light Snow
12:51 PM 35.6 °F 24.8 °F 30.2 °F 81% 30.02 in 1.2 mi North 19.6 mph 28.8 mph 0.00 in Snow Light Snow
12:53 PM 36.0 °F 26.0 °F 30.0 °F 79% 30.02 in 1.2 mi North 17.3 mph 28.8 mph 0.00 in Snow Light Snow
1:11 PM 35.6 °F 25.9 °F 32.0 °F 87% 30.02 in 3.0 mi North 16.1 mph 26.5 mph 0.00 in Snow Light Snow
1:23 PM 35.6 °F 25.5 °F 30.2 °F 81% 30.02 in 1.8 mi North 17.3 mph 20.7 mph 0.00 in Snow Light Snow
1:53 PM 35.1 °F 24.8 °F 32.0 °F 89% 30.02 in 2.0 mi North 17.3 mph 23.0 mph 0.00 in Snow Light Snow
2:00 PM 35.6 °F 26.2 °F 32.0 °F 87% 30.02 in 1.8 mi North 15.0 mph 23.0 mph 0.00 in Snow Light Snow
2:09 PM 35.6 °F 27.1 °F 32.0 °F 87% 30.02 in 1.8 mi North 12.7 mph 23.0 mph 0.00 in Snow Light Snow
2:13 PM 35.6 °F 26.2 °F 33.8 °F 93% 30.02 in 2.0 mi North 15.0 mph 23.0 mph 0.00 in Snow Light Snow
2:16 PM 35.6 °F 27.1 °F 33.8 °F 93% 30.02 in 2.5 mi North 12.7 mph 20.7 mph 0.00 in Snow Light Snow
2:30 PM 35.6 °F 26.6 °F 33.8 °F 93% 30.02 in 4.0 mi North 13.8 mph 23.0 mph 0.00 in Snow Light Snow
2:43 PM 35.6 °F 27.1 °F 33.8 °F 93% 30.02 in 3.0 mi North 12.7 mph - 0.00 in Snow Light Snow
2:53 PM 35.1 °F 26.9 °F 33.1 °F 92% 30.03 in 3.0 mi North 11.5 mph 20.7 mph 0.00 in Snow Light Snow
3:53 PM 35.1 °F 25.9 °F 32.0 °F 89% 30.04 in 4.0 mi North 13.8 mph 23.0 mph 0.01 in Snow Light Snow
4:16 PM 35.6 °F 27.1 °F 32.0 °F 87% 30.03 in 5.0 mi North 12.7 mph 23.0 mph 0.00 in Snow Light Snow
4:53 PM 35.1 °F 26.9 °F 32.0 °F 89% 30.03 in 6.0 mi North 11.5 mph 20.7 mph 0.00 in Snow Light Snow
5:33 PM 35.6 °F 27.1 °F 32.0 °F 87% 30.04 in 2.5 mi North 12.7 mph 20.7 mph 0.00 in Snow Light Snow
5:45 PM 33.8 °F 23.2 °F 32.0 °F 93% 30.04 in 1.5 mi North 17.3 mph 23.0 mph 0.00 in Snow Light Snow
5:53 PM 34.0 °F 24.6 °F 32.0 °F 92% 30.05 in 2.0 mi North 13.8 mph 23.0 mph 0.00 in Snow Light Snow
6:06 PM 33.8 °F 25.3 °F 32.0 °F 93% 30.05 in 1.8 mi North 11.5 mph 19.6 mph 0.01 in Snow Light Snow
6:14 PM 33.8 °F 25.3 °F 32.0 °F 93% 30.05 in 2.0 mi North 11.5 mph 19.6 mph 0.01 in Snow Light Snow
6:39 PM 33.8 °F 25.3 °F 32.0 °F 93% 30.06 in 1.5 mi North 11.5 mph 17.3 mph 0.02 in Snow Light Snow
6:53 PM 33.1 °F 23.9 °F 32.0 °F 96% 30.06 in 1.0 mi North 12.7 mph 17.3 mph 0.03 in Snow Light Snow
7:53 PM 34.0 °F 26.6 °F 32.0 °F 92% 30.05 in 1.8 mi North 9.2 mph 18.4 mph 0.02 in Snow Light Snow
8:53 PM 34.0 °F 26.6 °F 32.0 °F 92% 30.04 in 2.0 mi North 9.2 mph 18.4 mph 0.03 in Snow Light Snow
9:13 PM 33.8 °F 26.4 °F 32.0 °F 93% 30.04 in 1.8 mi North 9.2 mph 17.3 mph 0.01 in Snow Light Snow
9:53 PM 33.1 °F 26.1 °F 32.0 °F 96% 30.03 in 1.5 mi North 8.1 mph - 0.04 in Snow Light Snow
10:53 PM 33.1 °F 24.4 °F 32.0 °F 96% 30.01 in 2.5 mi North 11.5 mph - 0.02 in Snow Light Snow
11:22 PM 33.8 °F 25.8 °F 32.0 °F 93% 30.01 in 1.2 mi North 10.4 mph 17.3 mph 0.00 in Snow Light Snow
11:53 PM 33.1 °F 25.5 °F 32.0 °F 96% 30.01 in 1.2 mi North 9.2 mph - 0.01 in Snow Light Snow